createdAt,value
2022-08-05T00:01:30.143Z,14.30
2022-08-05T00:06:43.814Z,17.80
2022-08-05T00:11:56.129Z,8.70
2022-08-05T00:17:18.772Z,10.80
2022-08-05T00:22:27.201Z,12.70
2022-08-05T00:27:36.442Z,9.40
2022-08-05T00:32:43.727Z,12.10
2022-08-05T00:37:54.526Z,12.80
2022-08-05T00:43:07.644Z,10.20
2022-08-05T00:48:16.774Z,8.40
2022-08-05T00:54:00.359Z,10.00
2022-08-05T00:58:52.596Z,9.50
2022-08-05T01:04:01.377Z,9.70
2022-08-05T01:09:08.396Z,10.10
2022-08-05T01:14:27.800Z,11.70
2022-08-05T01:20:01.440Z,10.10
2022-08-05T01:25:39.797Z,11.30
2022-08-05T01:30:55.289Z,11.20
2022-08-05T01:36:13.086Z,10.80
2022-08-05T01:41:25.959Z,16.40
2022-08-05T01:46:42.332Z,13.50
2022-08-05T01:51:52.390Z,8.50
2022-08-05T01:58:13.193Z,8.50
2022-08-05T02:02:31.466Z,9.30
2022-08-05T02:07:56.283Z,8.30
2022-08-05T02:13:16.555Z,14.90
2022-08-05T02:18:34.213Z,8.90
2022-08-05T02:23:46.008Z,11.10
2022-08-05T02:28:55.430Z,11.50
2022-08-05T02:34:10.194Z,12.20
2022-08-05T02:39:21.553Z,11.10
2022-08-05T02:44:30.058Z,11.30
2022-08-05T02:49:40.647Z,11.30
2022-08-05T02:54:50.736Z,8.20
2022-08-05T02:59:59.686Z,9.00
2022-08-05T03:05:12.386Z,10.70
2022-08-05T03:10:22.127Z,11.00
2022-08-05T03:15:32.195Z,11.10
2022-08-05T03:20:44.627Z,11.40
2022-08-05T03:26:04.695Z,12.60
2022-08-05T03:31:55.456Z,13.00
2022-08-05T03:36:52.349Z,13.40
2022-08-05T03:41:59.655Z,11.90
2022-08-05T03:47:09.487Z,8.00
2022-08-05T03:52:37.528Z,11.40
2022-08-05T03:57:56.624Z,16.40
2022-08-05T04:03:07.992Z,12.20
2022-08-05T04:08:34.905Z,14.00
2022-08-05T04:13:50.085Z,13.10
2022-08-05T04:18:58.480Z,12.70
2022-08-05T04:24:19.161Z,14.40
2022-08-05T04:29:29.810Z,16.90
2022-08-05T04:34:42.907Z,15.60
2022-08-05T04:39:52.812Z,13.50
2022-08-05T04:45:02.565Z,15.50
2022-08-05T04:50:11.758Z,13.00
2022-08-05T04:55:21.139Z,15.00
2022-08-05T05:00:46.734Z,12.50
2022-08-05T05:06:35.886Z,13.60
2022-08-05T05:11:25.451Z,12.20
2022-08-05T05:16:50.527Z,13.70
2022-08-05T05:21:57.650Z,12.50
2022-08-05T05:27:13.348Z,10.50
2022-08-05T05:32:24.456Z,10.80
2022-08-05T05:37:58.814Z,9.40
2022-08-05T05:43:00.198Z,13.60
2022-08-05T05:48:09.549Z,18.90
2022-08-05T05:53:21.959Z,23.50
2022-08-05T05:58:31.630Z,13.20
2022-08-05T06:04:00.936Z,12.10
2022-08-05T06:09:08.237Z,17.00
2022-08-05T06:14:15.219Z,15.50
2022-08-05T06:19:26.162Z,14.50
2022-08-05T06:24:48.322Z,16.60
2022-08-05T06:30:02.772Z,13.90
2022-08-05T06:35:21.612Z,12.00
2022-08-05T06:40:44.292Z,17.80
2022-08-05T06:46:03.796Z,10.40
2022-08-05T06:51:23.939Z,15.60
2022-08-05T06:56:36.658Z,15.20
2022-08-05T07:01:44.148Z,21.80
2022-08-05T07:06:53.168Z,12.20
2022-08-05T07:12:00.351Z,14.80
2022-08-05T07:18:00.457Z,12.30
2022-08-05T07:22:35.617Z,11.20
2022-08-05T07:27:57.251Z,11.40
2022-08-05T07:33:09.947Z,13.50
2022-08-05T07:38:26.411Z,13.40
2022-08-05T07:43:41.904Z,10.20
2022-08-05T07:49:04.183Z,14.80
2022-08-05T07:54:12.794Z,12.30
2022-08-05T07:59:23.207Z,8.30
2022-08-05T08:04:38.405Z,14.00
2022-08-05T08:09:45.870Z,14.00
2022-08-05T08:14:53.047Z,11.40
2022-08-05T08:20:10.700Z,15.00
2022-08-05T08:26:00.145Z,9.70
2022-08-05T08:30:56.257Z,8.60
2022-08-05T08:36:29.842Z,9.90
2022-08-05T08:41:52.710Z,12.70
2022-08-05T08:47:01.608Z,9.80
2022-08-05T08:52:14.811Z,9.70
2022-08-05T08:57:22.610Z,9.90
2022-08-05T09:02:30.480Z,6.50
2022-08-05T09:07:39.703Z,9.60
2022-08-05T09:13:05.239Z,7.60
2022-08-05T09:18:13.440Z,7.50
2022-08-05T09:23:22.124Z,7.00
2022-08-05T09:28:31.841Z,9.50
2022-08-05T09:33:52.285Z,8.00
2022-08-05T09:39:02.434Z,6.50
2022-08-05T09:44:09.539Z,7.60
2022-08-05T09:49:54.668Z,10.80
2022-08-05T09:55:55.418Z,7.40
2022-08-05T10:00:31.502Z,4.50
2022-08-05T10:05:38.837Z,8.20
2022-08-05T10:10:54.288Z,5.00
2022-08-05T10:16:02.090Z,6.60
2022-08-05T10:21:15.636Z,4.80
2022-08-05T10:26:31.761Z,4.70
2022-08-05T10:32:55.448Z,6.30
2022-08-05T10:37:07.935Z,4.40
2022-08-05T10:42:32.419Z,9.90
2022-08-05T10:47:56.147Z,5.60
2022-08-05T10:53:39.239Z,3.70
2022-08-05T10:59:12.692Z,6.60
2022-08-05T11:04:43.643Z,5.00
2022-08-05T11:10:09.740Z,5.30
2022-08-05T11:15:23.585Z,8.50
2022-08-05T11:20:52.213Z,5.70
2022-08-05T11:26:10.606Z,5.80
2022-08-05T11:31:54.409Z,6.40
2022-08-05T11:37:02.804Z,3.80
2022-08-05T11:42:30.927Z,6.10
2022-08-05T11:47:49.558Z,2.90
2022-08-05T11:52:58.426Z,5.60
2022-08-05T11:58:10.649Z,3.60
2022-08-05T12:03:28.494Z,2.80
2022-08-05T12:08:50.861Z,5.00
2022-08-05T12:14:04.133Z,1.50
2022-08-05T12:20:26.185Z,4.40
2022-08-05T12:24:49.358Z,8.70
2022-08-05T12:30:05.069Z,1.70
2022-08-05T12:35:16.932Z,6.40
2022-08-05T12:40:32.189Z,4.10
2022-08-05T12:45:48.321Z,2.20
2022-08-05T12:52:10.156Z,4.00
2022-08-05T12:56:51.043Z,0.90
2022-08-05T13:02:07.206Z,2.00
2022-08-05T13:07:17.233Z,5.10
2022-08-05T13:17:41.838Z,3.60
2022-08-05T13:22:52.782Z,4.30
2022-08-05T13:28:00.056Z,1.40
2022-08-05T13:33:07.485Z,2.30
2022-08-05T13:38:20.377Z,3.90
2022-08-05T13:43:44.021Z,3.70
2022-08-05T13:48:58.018Z,1.50
2022-08-05T13:54:11.881Z,3.30
2022-08-05T13:59:21.160Z,1.30
2022-08-05T14:04:51.346Z,3.30
2022-08-05T14:09:58.850Z,2.70
2022-08-05T14:16:04.519Z,2.10
2022-08-05T14:20:34.333Z,1.90
2022-08-05T14:25:44.892Z,2.10
2022-08-05T14:30:52.289Z,3.00
2022-08-05T14:36:02.115Z,2.30
2022-08-05T14:41:09.392Z,3.30
2022-08-05T14:46:17.018Z,2.70
2022-08-05T14:51:24.040Z,3.50
2022-08-05T14:56:31.648Z,3.40
2022-08-05T15:01:48.373Z,1.80
2022-08-05T15:06:56.231Z,4.20
2022-08-05T15:12:03.944Z,4.50
2022-08-05T15:17:44.534Z,2.00
2022-08-05T15:22:38.824Z,1.40
2022-08-05T15:27:52.471Z,3.60
2022-08-05T15:33:01.835Z,2.50
2022-08-05T15:38:34.146Z,2.90
2022-08-05T15:43:45.807Z,3.40
2022-08-05T15:49:01.389Z,1.50
2022-08-05T15:54:17.906Z,6.40
2022-08-05T15:59:25.471Z,2.90
2022-08-05T16:04:36.508Z,2.70
2022-08-05T16:09:43.767Z,3.00
2022-08-05T16:14:50.836Z,2.40
2022-08-05T16:20:04.842Z,9.00
2022-08-05T16:25:14.710Z,2.60
2022-08-05T16:30:25.514Z,3.20
2022-08-05T16:35:41.841Z,2.10
2022-08-05T16:40:55.133Z,5.90
2022-08-05T16:46:23.637Z,8.90
2022-08-05T16:51:42.758Z,4.90
2022-08-05T16:56:58.090Z,4.80
2022-08-05T17:02:05.070Z,4.70
2022-08-05T17:07:12.736Z,6.70
2022-08-05T17:12:22.614Z,6.20
2022-08-05T17:17:51.257Z,3.70
2022-08-05T17:23:02.188Z,7.40
2022-08-05T17:28:10.061Z,2.50
2022-08-05T17:33:17.054Z,4.10
2022-08-05T17:38:23.957Z,4.60
2022-08-05T17:43:50.637Z,3.50
2022-08-05T17:48:58.149Z,3.00
2022-08-05T17:54:05.208Z,4.20
2022-08-05T18:04:21.155Z,5.40
2022-08-05T18:09:58.907Z,7.40
2022-08-05T18:15:01.181Z,6.40
2022-08-05T18:20:14.945Z,7.50
2022-08-05T18:25:22.195Z,8.40
2022-08-05T18:30:33.210Z,5.80
2022-08-05T18:36:00.122Z,8.30
2022-08-05T18:41:56.093Z,19.40
2022-08-05T18:46:36.632Z,17.90
2022-08-05T18:52:05.668Z,12.20
2022-08-05T18:57:18.097Z,20.10
2022-08-05T19:02:31.110Z,16.20
2022-08-05T19:07:42.347Z,26.00
2022-08-05T19:12:53.574Z,21.20
2022-08-05T19:18:09.575Z,15.50
2022-08-05T19:24:03.795Z,12.20
2022-08-05T19:28:45.247Z,15.00
2022-08-05T19:33:56.569Z,7.00
2022-08-05T19:39:04.057Z,9.70
2022-08-05T19:44:13.197Z,18.60
2022-08-05T19:49:22.507Z,14.50
2022-08-05T19:54:31.915Z,10.70
2022-08-05T19:59:54.549Z,8.40
2022-08-05T20:05:43.207Z,6.10
2022-08-05T20:11:06.043Z,5.70
2022-08-05T20:16:14.130Z,5.40
2022-08-05T20:21:27.922Z,5.20
2022-08-05T20:26:37.816Z,7.10
2022-08-05T20:31:53.566Z,7.40
2022-08-05T20:37:04.822Z,8.50
2022-08-05T20:42:25.342Z,16.70
2022-08-05T20:47:40.089Z,7.90
2022-08-05T20:52:48.051Z,6.40
2022-08-05T20:57:55.363Z,8.80
2022-08-05T21:03:06.882Z,5.60
2022-08-05T21:08:14.731Z,5.10
2022-08-05T21:13:37.838Z,13.40
2022-08-05T21:18:48.480Z,7.00
2022-08-05T21:23:55.796Z,8.00
2022-08-05T21:29:03.710Z,7.30
2022-08-05T21:34:11.396Z,10.60
2022-08-05T21:39:26.934Z,6.10
2022-08-05T21:44:35.165Z,7.80
2022-08-05T21:49:48.291Z,6.30
2022-08-05T21:55:09.449Z,7.10
2022-08-05T22:00:18.623Z,4.90
2022-08-05T22:05:27.267Z,5.60
2022-08-05T22:10:34.494Z,12.10
2022-08-05T22:16:00.750Z,9.30
2022-08-05T22:21:18.697Z,5.50
2022-08-05T22:26:49.654Z,6.10
2022-08-05T22:32:02.886Z,7.80
2022-08-05T22:37:10.369Z,9.20
2022-08-05T22:42:25.406Z,6.60
2022-08-05T22:47:33.403Z,7.80
2022-08-05T22:52:43.933Z,7.50
2022-08-05T22:57:51.273Z,6.40
2022-08-05T23:02:58.344Z,7.10
2022-08-05T23:08:05.785Z,6.50
2022-08-05T23:13:12.787Z,7.40
2022-08-05T23:18:19.737Z,9.10
2022-08-05T23:23:30.061Z,8.80
2022-08-05T23:28:43.211Z,6.40
2022-08-05T23:34:04.982Z,8.20
2022-08-05T23:39:17.516Z,8.40
2022-08-05T23:44:39.265Z,7.20
2022-08-05T23:49:52.044Z,10.60
2022-08-05T23:55:07.131Z,8.60
